sensor_id;sensor_type;location;lat;lon;timestamp;noise_LAeq;noise_LA_min;noise_LA_max;noise_LA01;noise_LA95
41518;Laerm;27249;48.094;-1.690;2023-07-20T00:00:33;46.98;40.80;55.72;;
41518;Laerm;27249;48.094;-1.690;2023-07-20T00:03:14;50.21;41.38;61.15;;
41518;Laerm;27249;48.094;-1.690;2023-07-20T00:05:44;46.97;41.61;60.51;;
41518;Laerm;27249;48.094;-1.690;2023-07-20T00:08:09;51.29;42.22;62.32;;
41518;Laerm;27249;48.094;-1.690;2023-07-20T00:10:34;49.80;40.98;58.08;;
41518;Laerm;27249;48.094;-1.690;2023-07-20T00:13:00;46.95;40.33;60.95;;
41518;Laerm;27249;48.094;-1.690;2023-07-20T00:15:26;48.00;40.71;60.02;;
41518;Laerm;27249;48.094;-1.690;2023-07-20T00:17:51;48.09;40.53;58.50;;
41518;Laerm;27249;48.094;-1.690;2023-07-20T00:20:16;46.53;41.22;59.66;;
41518;Laerm;27249;48.094;-1.690;2023-07-20T00:22:42;48.45;41.46;61.48;;
41518;Laerm;27249;48.094;-1.690;2023-07-20T00:25:08;46.71;40.88;56.12;;
41518;Laerm;27249;48.094;-1.690;2023-07-20T00:27:33;51.33;41.14;65.32;;
41518;Laerm;27249;48.094;-1.690;2023-07-20T00:29:58;50.92;41.75;61.61;;
41518;Laerm;27249;48.094;-1.690;2023-07-20T00:32:23;48.31;41.75;60.72;;
41518;Laerm;27249;48.094;-1.690;2023-07-20T00:34:49;45.43;40.71;57.75;;
41518;Laerm;27249;48.094;-1.690;2023-07-20T00:37:14;44.94;40.96;55.02;;
41518;Laerm;27249;48.094;-1.690;2023-07-20T00:39:39;43.16;40.80;46.20;;
41518;Laerm;27249;48.094;-1.690;2023-07-20T00:42:04;52.77;41.30;66.54;;
41518;Laerm;27249;48.094;-1.690;2023-07-20T00:44:30;44.30;40.98;53.21;;
41518;Laerm;27249;48.094;-1.690;2023-07-20T00:46:55;48.98;41.30;65.55;;
41518;Laerm;27249;48.094;-1.690;2023-07-20T00:49:21;44.40;40.62;54.04;;
41518;Laerm;27249;48.094;-1.690;2023-07-20T00:51:48;49.86;40.80;61.56;;
41518;Laerm;27249;48.094;-1.690;2023-07-20T00:54:14;44.69;41.82;58.76;;
41518;Laerm;27249;48.094;-1.690;2023-07-20T00:56:40;54.76;42.09;71.96;;
41518;Laerm;27249;48.094;-1.690;2023-07-20T00:59:05;46.00;40.62;57.24;;
41518;Laerm;27249;48.094;-1.690;2023-07-20T01:01:30;43.08;40.23;53.84;;
41518;Laerm;27249;48.094;-1.690;2023-07-20T01:03:56;46.81;40.62;58.36;;
41518;Laerm;27249;48.094;-1.690;2023-07-20T01:09:03;46.74;40.53;57.95;;
41518;Laerm;27249;48.094;-1.690;2023-07-20T01:11:36;48.26;41.14;59.81;;
41518;Laerm;27249;48.094;-1.690;2023-07-20T01:14:01;46.27;41.22;61.35;;
41518;Laerm;27249;48.094;-1.690;2023-07-20T01:16:27;48.62;41.53;59.64;;
41518;Laerm;27249;48.094;-1.690;2023-07-20T01:18:53;47.97;40.71;59.78;;
41518;Laerm;27249;48.094;-1.690;2023-07-20T01:21:21;49.97;41.38;61.40;;
41518;Laerm;27249;48.094;-1.690;2023-07-20T01:31:55;45.43;41.14;58.13;;
41518;Laerm;27249;48.094;-1.690;2023-07-20T01:34:22;43.46;41.22;49.62;;
41518;Laerm;27249;48.094;-1.690;2023-07-20T01:36:48;43.80;41.46;58.02;;
41518;Laerm;27249;48.094;-1.690;2023-07-20T01:39:15;43.01;39.70;45.83;;
41518;Laerm;27249;48.094;-1.690;2023-07-20T01:41:41;43.44;40.80;46.76;;
41518;Laerm;27249;48.094;-1.690;2023-07-20T01:44:08;45.70;41.38;56.05;;
41518;Laerm;27249;48.094;-1.690;2023-07-20T01:46:33;47.50;41.14;58.25;;
41518;Laerm;27249;48.094;-1.690;2023-07-20T01:48:58;43.50;41.61;45.72;;
41518;Laerm;27249;48.094;-1.690;2023-07-20T01:51:23;47.89;41.46;57.53;;
41518;Laerm;27249;48.094;-1.690;2023-07-20T01:53:49;44.10;41.82;47.55;;
41518;Laerm;27249;48.094;-1.690;2023-07-20T01:56:14;48.34;41.61;58.92;;
41518;Laerm;27249;48.094;-1.690;2023-07-20T01:58:39;47.41;41.75;59.98;;
41518;Laerm;27249;48.094;-1.690;2023-07-20T02:01:04;46.09;41.82;57.92;;
41518;Laerm;27249;48.094;-1.690;2023-07-20T02:03:30;53.73;41.61;66.30;;
41518;Laerm;27249;48.094;-1.690;2023-07-20T02:05:55;49.39;41.38;60.28;;
41518;Laerm;27249;48.094;-1.690;2023-07-20T02:08:22;43.53;40.53;48.95;;
41518;Laerm;27249;48.094;-1.690;2023-07-20T02:10:47;49.79;40.98;65.91;;
41518;Laerm;27249;48.094;-1.690;2023-07-20T02:13:13;48.76;41.11;59.98;;
41518;Laerm;27249;48.094;-1.690;2023-07-20T02:15:38;52.45;41.75;66.23;;
41518;Laerm;27249;48.094;-1.690;2023-07-20T02:18:03;47.87;41.46;59.44;;
41518;Laerm;27249;48.094;-1.690;2023-07-20T02:20:28;51.08;42.03;63.82;;
41518;Laerm;27249;48.094;-1.690;2023-07-20T02:22:53;52.51;42.53;67.94;;
41518;Laerm;27249;48.094;-1.690;2023-07-20T02:25:19;49.60;42.09;61.26;;
41518;Laerm;27249;48.094;-1.690;2023-07-20T02:27:44;48.90;42.03;58.82;;
41518;Laerm;27249;48.094;-1.690;2023-07-20T02:30:09;53.45;41.89;63.89;;
41518;Laerm;27249;48.094;-1.690;2023-07-20T02:32:35;47.33;42.09;57.53;;
41518;Laerm;27249;48.094;-1.690;2023-07-20T02:35:01;49.39;41.89;62.11;;
41518;Laerm;27249;48.094;-1.690;2023-07-20T02:37:29;53.12;42.09;67.10;;
41518;Laerm;27249;48.094;-1.690;2023-07-20T02:39:54;53.44;41.68;63.96;;
41518;Laerm;27249;48.094;-1.690;2023-07-20T02:42:19;50.45;41.19;61.96;;
41518;Laerm;27249;48.094;-1.690;2023-07-20T02:44:47;45.32;41.61;56.65;;
41518;Laerm;27249;48.094;-1.690;2023-07-20T02:47:13;50.52;43.34;59.18;;
41518;Laerm;27249;48.094;-1.690;2023-07-20T02:49:38;49.21;42.47;61.36;;
41518;Laerm;27249;48.094;-1.690;2023-07-20T02:52:03;46.83;41.75;58.65;;
41518;Laerm;27249;48.094;-1.690;2023-07-20T02:54:29;49.37;42.03;61.31;;
41518;Laerm;27249;48.094;-1.690;2023-07-20T02:56:55;49.58;42.65;60.18;;
41518;Laerm;27249;48.094;-1.690;2023-07-20T02:59:20;49.01;42.82;59.57;;
41518;Laerm;27249;48.094;-1.690;2023-07-20T03:01:45;51.43;42.41;66.04;;
41518;Laerm;27249;48.094;-1.690;2023-07-20T03:04:11;47.47;41.53;57.71;;
41518;Laerm;27249;48.094;-1.690;2023-07-20T03:06:36;46.77;41.75;58.02;;
41518;Laerm;27249;48.094;-1.690;2023-07-20T03:09:02;48.77;41.75;61.71;;
41518;Laerm;27249;48.094;-1.690;2023-07-20T03:14:31;47.44;42.35;57.12;;
41518;Laerm;27249;48.094;-1.690;2023-07-20T03:19:53;48.08;41.82;57.61;;
41518;Laerm;27249;48.094;-1.690;2023-07-20T03:22:18;48.96;42.22;62.22;;
41518;Laerm;27249;48.094;-1.690;2023-07-20T03:24:44;48.00;41.89;62.58;;
41518;Laerm;27249;48.094;-1.690;2023-07-20T03:27:09;48.41;42.16;60.83;;
41518;Laerm;27249;48.094;-1.690;2023-07-20T03:29:34;48.16;42.22;57.41;;
41518;Laerm;27249;48.094;-1.690;2023-07-20T03:32:00;46.73;42.47;57.99;;
41518;Laerm;27249;48.094;-1.690;2023-07-20T03:34:25;53.08;43.14;65.28;;
41518;Laerm;27249;48.094;-1.690;2023-07-20T03:36:50;50.61;42.98;68.96;;
41518;Laerm;27249;48.094;-1.690;2023-07-20T03:39:15;47.33;42.47;62.30;;
41518;Laerm;27249;48.094;-1.690;2023-07-20T03:41:41;50.28;41.46;65.33;;
41518;Laerm;27249;48.094;-1.690;2023-07-20T03:44:06;50.30;43.14;64.08;;
41518;Laerm;27249;48.094;-1.690;2023-07-20T03:46:31;55.83;42.82;68.03;;
41518;Laerm;27249;48.094;-1.690;2023-07-20T03:48:59;55.71;43.24;72.72;;
41518;Laerm;27249;48.094;-1.690;2023-07-20T03:51:24;54.32;43.39;68.68;;
41518;Laerm;27249;48.094;-1.690;2023-07-20T03:53:49;52.59;42.90;66.42;;
41518;Laerm;27249;48.094;-1.690;2023-07-20T03:56:14;51.00;42.82;67.53;;
41518;Laerm;27249;48.094;-1.690;2023-07-20T03:58:39;54.71;43.39;68.04;;
41518;Laerm;27249;48.094;-1.690;2023-07-20T04:01:05;60.16;43.33;74.59;;
41518;Laerm;27249;48.094;-1.690;2023-07-20T04:03:32;52.53;43.14;68.60;;
41518;Laerm;27249;48.094;-1.690;2023-07-20T04:05:57;53.52;43.24;66.91;;
41518;Laerm;27249;48.094;-1.690;2023-07-20T04:08:23;52.08;43.24;66.14;;
41518;Laerm;27249;48.094;-1.690;2023-07-20T04:10:49;52.02;43.19;63.72;;
41518;Laerm;27249;48.094;-1.690;2023-07-20T04:13:14;50.36;43.09;63.18;;
41518;Laerm;27249;48.094;-1.690;2023-07-20T04:15:39;53.09;43.77;65.79;;
41518;Laerm;27249;48.094;-1.690;2023-07-20T04:18:04;54.79;44.03;65.92;;
41518;Laerm;27249;48.094;-1.690;2023-07-20T04:20:29;51.51;43.39;62.32;;
41518;Laerm;27249;48.094;-1.690;2023-07-20T04:22:55;55.14;44.35;65.78;;
41518;Laerm;27249;48.094;-1.690;2023-07-20T04:25:20;51.35;43.99;64.19;;
41518;Laerm;27249;48.094;-1.690;2023-07-20T04:27:45;55.40;45.14;62.75;;
41518;Laerm;27249;48.094;-1.690;2023-07-20T04:30:11;53.93;45.36;61.73;;
41518;Laerm;27249;48.094;-1.690;2023-07-20T04:32:36;55.73;43.81;74.81;;
41518;Laerm;27249;48.094;-1.690;2023-07-20T04:35:05;53.69;45.39;68.74;;
41518;Laerm;27249;48.094;-1.690;2023-07-20T04:37:30;53.35;45.45;62.28;;
41518;Laerm;27249;48.094;-1.690;2023-07-20T04:39:56;55.39;44.11;72.70;;
41518;Laerm;27249;48.094;-1.690;2023-07-20T04:42:21;60.39;43.77;85.69;;
41518;Laerm;27249;48.094;-1.690;2023-07-20T04:44:46;54.01;43.99;63.89;;
41518;Laerm;27249;48.094;-1.690;2023-07-20T04:47:12;54.86;46.35;72.24;;
41518;Laerm;27249;48.094;-1.690;2023-07-20T04:49:37;63.35;46.57;87.61;;
41518;Laerm;27249;48.094;-1.690;2023-07-20T04:52:03;55.89;45.66;67.07;;
41518;Laerm;27249;48.094;-1.690;2023-07-20T04:54:28;57.31;50.19;65.75;;
41518;Laerm;27249;48.094;-1.690;2023-07-20T04:56:53;55.96;46.93;65.37;;
41518;Laerm;27249;48.094;-1.690;2023-07-20T04:59:19;55.99;47.65;67.29;;
41518;Laerm;27249;48.094;-1.690;2023-07-20T05:01:44;54.67;47.28;61.63;;
41518;Laerm;27249;48.094;-1.690;2023-07-20T05:04:09;54.70;46.45;67.07;;
41518;Laerm;27249;48.094;-1.690;2023-07-20T05:06:34;53.34;45.57;62.47;;
41518;Laerm;27249;48.094;-1.690;2023-07-20T05:09:00;56.44;46.25;67.51;;
41518;Laerm;27249;48.094;-1.690;2023-07-20T05:11:25;56.92;48.49;65.04;;
41518;Laerm;27249;48.094;-1.690;2023-07-20T05:13:50;55.88;46.50;70.78;;
41518;Laerm;27249;48.094;-1.690;2023-07-20T05:16:15;57.28;46.95;66.66;;
41518;Laerm;27249;48.094;-1.690;2023-07-20T05:18:40;62.01;49.03;78.08;;
41518;Laerm;27249;48.094;-1.690;2023-07-20T05:21:06;58.69;47.44;81.97;;
41518;Laerm;27249;48.094;-1.690;2023-07-20T05:23:31;58.43;51.33;68.04;;
41518;Laerm;27249;48.094;-1.690;2023-07-20T05:25:59;55.83;47.52;66.78;;
41518;Laerm;27249;48.094;-1.690;2023-07-20T05:28:25;56.50;47.48;66.37;;
41518;Laerm;27249;48.094;-1.690;2023-07-20T05:30:53;56.57;50.45;66.00;;
41518;Laerm;27249;48.094;-1.690;2023-07-20T05:33:19;55.98;47.65;63.32;;
41518;Laerm;27249;48.094;-1.690;2023-07-20T05:35:45;57.14;47.04;63.55;;
41518;Laerm;27249;48.094;-1.690;2023-07-20T05:38:10;56.37;51.11;61.51;;
41518;Laerm;27249;48.094;-1.690;2023-07-20T05:40:37;58.02;51.40;65.00;;
41518;Laerm;27249;48.094;-1.690;2023-07-20T05:43:02;55.59;47.61;68.38;;
41518;Laerm;27249;48.094;-1.690;2023-07-20T05:45:28;59.27;49.38;67.56;;
41518;Laerm;27249;48.094;-1.690;2023-07-20T05:47:53;57.53;46.89;64.09;;
41518;Laerm;27249;48.094;-1.690;2023-07-20T05:50:18;57.32;48.13;64.21;;
41518;Laerm;27249;48.094;-1.690;2023-07-20T05:52:43;57.83;50.92;64.08;;
41518;Laerm;27249;48.094;-1.690;2023-07-20T05:55:09;58.23;53.19;66.57;;
41518;Laerm;27249;48.094;-1.690;2023-07-20T05:57:34;57.57;51.66;63.86;;
41518;Laerm;27249;48.094;-1.690;2023-07-20T06:00:00;58.73;48.98;75.12;;
41518;Laerm;27249;48.094;-1.690;2023-07-20T06:02:25;57.23;46.02;67.69;;
41518;Laerm;27249;48.094;-1.690;2023-07-20T06:04:50;56.57;49.43;67.15;;
41518;Laerm;27249;48.094;-1.690;2023-07-20T06:07:15;55.87;49.12;63.54;;
41518;Laerm;27249;48.094;-1.690;2023-07-20T06:09:41;58.80;50.16;65.68;;
41518;Laerm;27249;48.094;-1.690;2023-07-20T06:12:06;57.26;48.84;62.86;;
41518;Laerm;27249;48.094;-1.690;2023-07-20T06:14:32;57.09;48.54;63.83;;
41518;Laerm;27249;48.094;-1.690;2023-07-20T06:16:57;58.59;50.37;64.87;;
41518;Laerm;27249;48.094;-1.690;2023-07-20T06:19:22;57.54;49.29;63.92;;
41518;Laerm;27249;48.094;-1.690;2023-07-20T06:21:47;57.47;49.16;68.73;;
41518;Laerm;27249;48.094;-1.690;2023-07-20T06:24:14;57.08;48.25;63.35;;
41518;Laerm;27249;48.094;-1.690;2023-07-20T06:26:39;59.70;50.21;72.02;;
41518;Laerm;27249;48.094;-1.690;2023-07-20T06:29:05;55.82;47.10;61.98;;
41518;Laerm;27249;48.094;-1.690;2023-07-20T06:31:31;56.31;51.40;66.11;;
41518;Laerm;27249;48.094;-1.690;2023-07-20T06:33:56;56.30;48.85;66.72;;
41518;Laerm;27249;48.094;-1.690;2023-07-20T06:36:22;56.71;49.24;65.77;;
41518;Laerm;27249;48.094;-1.690;2023-07-20T06:38:47;58.11;51.50;65.36;;
41518;Laerm;27249;48.094;-1.690;2023-07-20T06:41:12;56.20;48.70;63.09;;
41518;Laerm;27249;48.094;-1.690;2023-07-20T06:43:37;57.10;49.97;69.89;;
41518;Laerm;27249;48.094;-1.690;2023-07-20T06:46:03;58.10;45.27;64.15;;
41518;Laerm;27249;48.094;-1.690;2023-07-20T06:48:28;57.29;53.00;64.84;;
41518;Laerm;27249;48.094;-1.690;2023-07-20T06:50:53;56.95;50.04;66.76;;
41518;Laerm;27249;48.094;-1.690;2023-07-20T06:53:19;59.10;47.22;72.45;;
41518;Laerm;27249;48.094;-1.690;2023-07-20T06:55:44;56.13;50.87;65.50;;
41518;Laerm;27249;48.094;-1.690;2023-07-20T06:58:10;57.22;48.84;63.23;;
41518;Laerm;27249;48.094;-1.690;2023-07-20T07:00:35;56.72;47.68;66.07;;
41518;Laerm;27249;48.094;-1.690;2023-07-20T07:03:01;57.16;48.71;66.78;;
41518;Laerm;27249;48.094;-1.690;2023-07-20T07:05:26;57.20;47.00;64.33;;
41518;Laerm;27249;48.094;-1.690;2023-07-20T07:07:51;56.60;46.38;67.33;;
41518;Laerm;27249;48.094;-1.690;2023-07-20T07:10:16;56.23;49.02;62.61;;
41518;Laerm;27249;48.094;-1.690;2023-07-20T07:12:42;56.07;49.08;65.65;;
41518;Laerm;27249;48.094;-1.690;2023-07-20T07:15:08;57.52;48.92;85.64;;
41518;Laerm;27249;48.094;-1.690;2023-07-20T07:17:35;57.65;49.21;75.95;;
41518;Laerm;27249;48.094;-1.690;2023-07-20T07:20:00;56.56;47.28;72.75;;
41518;Laerm;27249;48.094;-1.690;2023-07-20T07:22:26;55.73;48.67;62.18;;
41518;Laerm;27249;48.094;-1.690;2023-07-20T07:24:51;54.53;43.58;64.50;;
41518;Laerm;27249;48.094;-1.690;2023-07-20T07:27:16;54.46;45.20;61.89;;
41518;Laerm;27249;48.094;-1.690;2023-07-20T07:29:42;58.28;50.43;69.76;;
41518;Laerm;27249;48.094;-1.690;2023-07-20T07:32:09;56.12;47.80;66.22;;
41518;Laerm;27249;48.094;-1.690;2023-07-20T07:34:35;55.96;48.78;67.95;;
41518;Laerm;27249;48.094;-1.690;2023-07-20T07:37:00;55.75;47.42;66.45;;
41518;Laerm;27249;48.094;-1.690;2023-07-20T07:39:25;56.23;50.78;67.40;;
41518;Laerm;27249;48.094;-1.690;2023-07-20T07:41:51;58.64;51.67;76.29;;
41518;Laerm;27249;48.094;-1.690;2023-07-20T07:44:17;56.35;48.90;64.10;;
41518;Laerm;27249;48.094;-1.690;2023-07-20T07:46:43;55.66;47.51;65.55;;
41518;Laerm;27249;48.094;-1.690;2023-07-20T07:49:08;56.29;48.18;74.49;;
41518;Laerm;27249;48.094;-1.690;2023-07-20T07:51:33;54.57;44.51;70.33;;
41518;Laerm;27249;48.094;-1.690;2023-07-20T07:53:59;54.01;46.32;62.08;;
41518;Laerm;27249;48.094;-1.690;2023-07-20T07:56:24;54.97;45.97;62.94;;
41518;Laerm;27249;48.094;-1.690;2023-07-20T07:58:49;53.95;46.15;58.62;;
41518;Laerm;27249;48.094;-1.690;2023-07-20T08:01:16;54.55;45.23;61.98;;
41518;Laerm;27249;48.094;-1.690;2023-07-20T08:03:41;55.90;49.11;65.56;;
41518;Laerm;27249;48.094;-1.690;2023-07-20T08:06:07;57.00;50.00;65.16;;
41518;Laerm;27249;48.094;-1.690;2023-07-20T08:08:32;55.31;49.32;60.34;;
41518;Laerm;27249;48.094;-1.690;2023-07-20T08:10:57;56.51;47.76;70.47;;
41518;Laerm;27249;48.094;-1.690;2023-07-20T08:13:23;58.65;49.15;71.16;;
41518;Laerm;27249;48.094;-1.690;2023-07-20T08:15:49;56.04;50.63;68.89;;
41518;Laerm;27249;48.094;-1.690;2023-07-20T08:18:14;56.65;49.82;67.71;;
41518;Laerm;27249;48.094;-1.690;2023-07-20T08:20:42;55.88;44.35;67.52;;
41518;Laerm;27249;48.094;-1.690;2023-07-20T08:23:08;57.86;46.23;74.09;;
41518;Laerm;27249;48.094;-1.690;2023-07-20T08:25:35;55.98;51.15;64.32;;
41518;Laerm;27249;48.094;-1.690;2023-07-20T08:28:01;60.46;45.97;71.59;;
41518;Laerm;27249;48.094;-1.690;2023-07-20T08:30:27;62.02;48.39;70.78;;
41518;Laerm;27249;48.094;-1.690;2023-07-20T08:33:04;60.49;47.65;81.81;;
41518;Laerm;27249;48.094;-1.690;2023-07-20T08:35:29;53.38;46.89;67.72;;
41518;Laerm;27249;48.094;-1.690;2023-07-20T08:37:54;55.04;45.99;63.02;;
41518;Laerm;27249;48.094;-1.690;2023-07-20T08:40:19;55.32;46.73;65.60;;
41518;Laerm;27249;48.094;-1.690;2023-07-20T08:42:45;54.62;48.21;64.79;;
41518;Laerm;27249;48.094;-1.690;2023-07-20T08:45:10;54.63;47.98;65.99;;
41518;Laerm;27249;48.094;-1.690;2023-07-20T08:47:38;54.40;47.06;62.65;;
41518;Laerm;27249;48.094;-1.690;2023-07-20T08:50:05;55.65;48.58;64.08;;
41518;Laerm;27249;48.094;-1.690;2023-07-20T08:52:32;54.91;49.42;61.85;;
41518;Laerm;27249;48.094;-1.690;2023-07-20T08:54:59;58.16;48.81;68.06;;
41518;Laerm;27249;48.094;-1.690;2023-07-20T08:57:28;55.68;45.45;65.14;;
41518;Laerm;27249;48.094;-1.690;2023-07-20T08:59:53;55.85;49.83;66.54;;
41518;Laerm;27249;48.094;-1.690;2023-07-20T09:02:18;56.73;47.30;69.98;;
41518;Laerm;27249;48.094;-1.690;2023-07-20T09:04:46;55.32;47.16;64.46;;
41518;Laerm;27249;48.094;-1.690;2023-07-20T09:07:11;55.35;45.30;66.94;;
41518;Laerm;27249;48.094;-1.690;2023-07-20T09:09:39;56.62;49.75;66.16;;
41518;Laerm;27249;48.094;-1.690;2023-07-20T09:12:04;54.72;46.78;64.75;;
41518;Laerm;27249;48.094;-1.690;2023-07-20T09:14:30;55.89;49.55;66.02;;
41518;Laerm;27249;48.094;-1.690;2023-07-20T09:16:56;53.99;47.52;60.25;;
41518;Laerm;27249;48.094;-1.690;2023-07-20T09:19:21;55.25;44.73;66.08;;
41518;Laerm;27249;48.094;-1.690;2023-07-20T09:21:51;55.55;46.25;68.69;;
41518;Laerm;27249;48.094;-1.690;2023-07-20T09:24:17;54.42;45.99;62.08;;
41518;Laerm;27249;48.094;-1.690;2023-07-20T09:26:43;53.93;47.22;61.00;;
41518;Laerm;27249;48.094;-1.690;2023-07-20T09:29:09;55.97;48.98;65.36;;
41518;Laerm;27249;48.094;-1.690;2023-07-20T09:31:41;56.92;46.03;67.14;;
41518;Laerm;27249;48.094;-1.690;2023-07-20T09:34:06;60.59;44.90;75.18;;
41518;Laerm;27249;48.094;-1.690;2023-07-20T09:36:35;63.77;54.79;71.92;;
41518;Laerm;27249;48.094;-1.690;2023-07-20T09:39:01;60.22;49.58;71.25;;
41518;Laerm;27249;48.094;-1.690;2023-07-20T09:41:26;56.05;49.60;64.39;;
41518;Laerm;27249;48.094;-1.690;2023-07-20T09:43:52;55.54;49.23;68.80;;
41518;Laerm;27249;48.094;-1.690;2023-07-20T09:46:17;55.44;46.62;63.63;;
41518;Laerm;27249;48.094;-1.690;2023-07-20T09:48:54;54.92;47.34;64.61;;
41518;Laerm;27249;48.094;-1.690;2023-07-20T09:51:21;55.13;49.59;71.60;;
41518;Laerm;27249;48.094;-1.690;2023-07-20T09:53:47;56.28;46.18;62.58;;
41518;Laerm;27249;48.094;-1.690;2023-07-20T09:56:13;54.72;49.43;61.81;;
41518;Laerm;27249;48.094;-1.690;2023-07-20T09:58:39;55.05;48.07;67.23;;
41518;Laerm;27249;48.094;-1.690;2023-07-20T10:01:05;55.58;48.28;60.58;;
41518;Laerm;27249;48.094;-1.690;2023-07-20T10:03:32;55.38;47.88;67.63;;
41518;Laerm;27249;48.094;-1.690;2023-07-20T10:06:08;54.63;47.50;62.34;;
41518;Laerm;27249;48.094;-1.690;2023-07-20T10:08:37;55.15;46.95;62.96;;
41518;Laerm;27249;48.094;-1.690;2023-07-20T10:11:04;55.54;48.73;62.33;;
41518;Laerm;27249;48.094;-1.690;2023-07-20T10:13:30;53.82;46.57;61.31;;
41518;Laerm;27249;48.094;-1.690;2023-07-20T10:15:59;56.03;49.88;73.15;;
41518;Laerm;27249;48.094;-1.690;2023-07-20T10:18:28;55.06;49.91;62.02;;
41518;Laerm;27249;48.094;-1.690;2023-07-20T10:23:44;55.63;49.36;64.96;;
41518;Laerm;27249;48.094;-1.690;2023-07-20T10:26:12;57.01;49.35;69.90;;
41518;Laerm;27249;48.094;-1.690;2023-07-20T10:28:38;55.23;47.90;61.60;;
41518;Laerm;27249;48.094;-1.690;2023-07-20T10:31:04;54.88;46.40;61.67;;
41518;Laerm;27249;48.094;-1.690;2023-07-20T10:33:30;54.83;46.52;66.56;;
41518;Laerm;27249;48.094;-1.690;2023-07-20T10:35:56;54.39;48.43;61.60;;
41518;Laerm;27249;48.094;-1.690;2023-07-20T10:38:41;55.19;45.45;68.13;;
41518;Laerm;27249;48.094;-1.690;2023-07-20T10:43:50;55.39;48.42;70.21;;
41518;Laerm;27249;48.094;-1.690;2023-07-20T10:46:33;55.75;47.68;61.85;;
41518;Laerm;27249;48.094;-1.690;2023-07-20T10:48:59;55.73;46.71;71.08;;
41518;Laerm;27249;48.094;-1.690;2023-07-20T10:51:24;56.73;45.97;68.32;;
41518;Laerm;27249;48.094;-1.690;2023-07-20T10:53:50;55.89;45.07;68.98;;
41518;Laerm;27249;48.094;-1.690;2023-07-20T10:56:19;55.90;50.07;69.89;;
41518;Laerm;27249;48.094;-1.690;2023-07-20T10:58:44;56.20;49.08;65.86;;
41518;Laerm;27249;48.094;-1.690;2023-07-20T11:01:13;54.23;46.76;60.64;;
41518;Laerm;27249;48.094;-1.690;2023-07-20T11:03:39;54.07;44.65;62.26;;
41518;Laerm;27249;48.094;-1.690;2023-07-20T11:11:36;57.63;48.23;76.03;;
41518;Laerm;27249;48.094;-1.690;2023-07-20T11:14:03;54.73;47.08;66.30;;
41518;Laerm;27249;48.094;-1.690;2023-07-20T11:19:23;61.17;49.69;77.65;;
41518;Laerm;27249;48.094;-1.690;2023-07-20T11:21:50;60.62;46.18;80.48;;
41518;Laerm;27249;48.094;-1.690;2023-07-20T11:24:15;54.49;43.58;61.42;;
41518;Laerm;27249;48.094;-1.690;2023-07-20T11:26:41;52.84;44.23;65.95;;
41518;Laerm;27249;48.094;-1.690;2023-07-20T11:29:07;55.50;47.44;66.49;;
41518;Laerm;27249;48.094;-1.690;2023-07-20T11:31:34;58.34;44.58;75.25;;
41518;Laerm;27249;48.094;-1.690;2023-07-20T11:34:00;55.07;47.20;63.96;;
41518;Laerm;27249;48.094;-1.690;2023-07-20T11:36:25;58.41;48.23;75.97;;
41518;Laerm;27249;48.094;-1.690;2023-07-20T11:38:50;54.33;46.07;61.73;;
41518;Laerm;27249;48.094;-1.690;2023-07-20T11:41:16;56.16;49.96;65.40;;
41518;Laerm;27249;48.094;-1.690;2023-07-20T11:43:41;54.48;46.76;72.85;;
41518;Laerm;27249;48.094;-1.690;2023-07-20T11:46:07;54.41;45.01;62.54;;
41518;Laerm;27249;48.094;-1.690;2023-07-20T11:48:32;56.86;47.59;70.43;;
41518;Laerm;27249;48.094;-1.690;2023-07-20T11:53:44;56.13;48.60;71.28;;
41518;Laerm;27249;48.094;-1.690;2023-07-20T11:56:11;55.81;46.32;67.85;;
41518;Laerm;27249;48.094;-1.690;2023-07-20T11:58:41;55.97;47.77;65.31;;
41518;Laerm;27249;48.094;-1.690;2023-07-20T12:01:06;54.67;45.94;65.62;;
41518;Laerm;27249;48.094;-1.690;2023-07-20T12:03:31;56.21;42.76;67.69;;
41518;Laerm;27249;48.094;-1.690;2023-07-20T12:05:56;55.37;46.10;66.85;;
41518;Laerm;27249;48.094;-1.690;2023-07-20T12:08:30;54.65;47.40;65.14;;
41518;Laerm;27249;48.094;-1.690;2023-07-20T12:10:56;54.98;49.95;61.57;;
41518;Laerm;27249;48.094;-1.690;2023-07-20T12:13:21;54.02;47.40;64.48;;
41518;Laerm;27249;48.094;-1.690;2023-07-20T12:15:47;53.99;47.24;60.86;;
41518;Laerm;27249;48.094;-1.690;2023-07-20T12:18:12;56.39;47.76;76.08;;
41518;Laerm;27249;48.094;-1.690;2023-07-20T12:20:37;53.67;43.28;65.22;;
41518;Laerm;27249;48.094;-1.690;2023-07-20T12:23:10;54.16;47.10;58.97;;
41518;Laerm;27249;48.094;-1.690;2023-07-20T12:28:11;54.45;49.39;63.74;;
41518;Laerm;27249;48.094;-1.690;2023-07-20T12:30:37;55.69;48.03;61.70;;
41518;Laerm;27249;48.094;-1.690;2023-07-20T12:33:03;54.41;47.02;62.01;;
41518;Laerm;27249;48.094;-1.690;2023-07-20T12:35:29;55.29;45.99;62.52;;
41518;Laerm;27249;48.094;-1.690;2023-07-20T12:37:54;56.25;49.52;65.11;;
41518;Laerm;27249;48.094;-1.690;2023-07-20T12:40:20;54.76;44.54;62.95;;
41518;Laerm;27249;48.094;-1.690;2023-07-20T12:42:46;54.65;46.87;62.20;;
41518;Laerm;27249;48.094;-1.690;2023-07-20T12:45:11;54.26;47.02;62.33;;
41518;Laerm;27249;48.094;-1.690;2023-07-20T12:47:36;54.00;45.36;60.26;;
41518;Laerm;27249;48.094;-1.690;2023-07-20T12:50:02;55.93;44.31;64.30;;
41518;Laerm;27249;48.094;-1.690;2023-07-20T12:52:29;55.40;43.90;64.64;;
41518;Laerm;27249;48.094;-1.690;2023-07-20T12:54:54;54.62;45.48;62.19;;
41518;Laerm;27249;48.094;-1.690;2023-07-20T12:57:20;54.95;47.38;60.79;;
41518;Laerm;27249;48.094;-1.690;2023-07-20T12:59:45;55.15;50.00;62.96;;
41518;Laerm;27249;48.094;-1.690;2023-07-20T13:02:10;55.50;49.39;80.13;;
41518;Laerm;27249;48.094;-1.690;2023-07-20T13:04:35;54.75;45.07;60.81;;
41518;Laerm;27249;48.094;-1.690;2023-07-20T13:07:00;55.86;48.32;61.26;;
41518;Laerm;27249;48.094;-1.690;2023-07-20T13:09:26;56.18;49.49;63.12;;
41518;Laerm;27249;48.094;-1.690;2023-07-20T13:11:51;54.78;48.29;61.20;;
41518;Laerm;27249;48.094;-1.690;2023-07-20T13:14:17;55.99;44.69;67.82;;
41518;Laerm;27249;48.094;-1.690;2023-07-20T13:16:42;54.00;45.33;68.25;;
41518;Laerm;27249;48.094;-1.690;2023-07-20T13:19:08;55.87;47.83;68.22;;
41518;Laerm;27249;48.094;-1.690;2023-07-20T13:21:33;54.54;48.77;60.70;;
41518;Laerm;27249;48.094;-1.690;2023-07-20T13:23:58;54.99;47.38;60.07;;
41518;Laerm;27249;48.094;-1.690;2023-07-20T13:26:23;56.29;48.58;72.97;;
41518;Laerm;27249;48.094;-1.690;2023-07-20T13:28:49;54.40;45.14;60.20;;
41518;Laerm;27249;48.094;-1.690;2023-07-20T13:34:17;54.60;47.14;62.85;;
41518;Laerm;27249;48.094;-1.690;2023-07-20T13:36:42;56.78;46.76;65.75;;
41518;Laerm;27249;48.094;-1.690;2023-07-20T13:39:08;53.82;44.35;63.67;;
41518;Laerm;27249;48.094;-1.690;2023-07-20T13:41:33;55.30;48.51;61.76;;
41518;Laerm;27249;48.094;-1.690;2023-07-20T13:43:59;54.64;47.67;69.97;;
41518;Laerm;27249;48.094;-1.690;2023-07-20T13:46:24;55.43;45.07;61.25;;
41518;Laerm;27249;48.094;-1.690;2023-07-20T13:48:49;54.24;45.75;61.54;;
41518;Laerm;27249;48.094;-1.690;2023-07-20T13:51:15;55.17;47.96;63.22;;
41518;Laerm;27249;48.094;-1.690;2023-07-20T13:53:40;55.87;47.36;63.23;;
41518;Laerm;27249;48.094;-1.690;2023-07-20T13:56:05;54.75;46.35;59.98;;
41518;Laerm;27249;48.094;-1.690;2023-07-20T13:58:31;54.64;49.40;61.08;;
41518;Laerm;27249;48.094;-1.690;2023-07-20T14:00:56;55.98;47.77;63.50;;
41518;Laerm;27249;48.094;-1.690;2023-07-20T14:03:21;55.83;49.78;63.55;;